Time;durP1;ratioP1;P1;durP2;ratioP2;P2;SDS_P1;SDS_P2;PMS_P1;PMS_P2;Temp;Humidity;BMP_temperature;BMP_pressure;BME280_temperature;BME280_humidity;BME280_pressure;Samples;Min_cycle;Max_cycle;Signal;HPM_P1;HPM_P2
2021/12/22 00:03:51;;;;;;;42.80;20.88;;;;;;;-5.27;100.00;103187.13;10547054;28;20047;-60
2021/12/22 00:08:54;;;;;;;36.10;19.08;;;;;;;-5.44;100.00;103189.78;10546793;28;20126;-61
2021/12/22 00:13:56;;;;;;;32.20;18.88;;;;;;;-5.33;100.00;103197.06;10546740;28;20040;-59
2021/12/22 00:18:58;;;;;;;39.92;19.85;;;;;;;-4.74;100.00;103221.94;10546424;28;20062;-61
2021/12/22 00:24:01;;;;;;;47.60;21.58;;;;;;;-4.59;100.00;103219.19;10546056;28;20452;-59
2021/12/22 00:29:05;;;;;;;51.50;24.10;;;;;;;-4.81;100.00;103209.66;10546494;28;20083;-59
2021/12/22 00:34:15;;;;;;;44.55;21.45;;;;;;;-5.50;100.00;103186.06;10545922;28;20043;-60
2021/12/22 00:39:18;;;;;;;45.50;21.60;;;;;;;-5.37;100.00;103196.03;10545760;28;20048;-60
2021/12/22 00:44:22;;;;;;;33.22;19.10;;;;;;;-5.06;100.00;103206.00;10545319;28;20060;-59
2021/12/22 00:49:24;;;;;;;42.50;20.48;;;;;;;-4.95;100.00;103201.38;10545028;28;20051;-59
2021/12/22 00:54:27;;;;;;;43.17;21.20;;;;;;;-4.95;100.00;103205.63;10544672;28;20055;-61
2021/12/22 00:59:30;;;;;;;49.17;22.27;;;;;;;-4.89;100.00;103211.03;10545407;28;20063;-61
2021/12/22 01:04:32;;;;;;;43.58;20.33;;;;;;;-4.62;100.00;103223.25;10544397;28;20040;-59
2021/12/22 01:09:35;;;;;;;51.05;20.85;;;;;;;-4.88;100.00;103210.19;10544945;28;20041;-59
2021/12/22 01:14:38;;;;;;;33.42;18.98;;;;;;;-4.77;100.00;103215.81;10544098;28;20052;-59
2021/12/22 01:24:48;;;;;;;47.92;21.73;;;;;;;-4.65;100.00;103225.72;10543722;28;20503;-60
2021/12/22 01:29:51;;;;;;;54.58;25.13;;;;;;;-4.97;100.00;103220.03;10543817;28;20044;-59
2021/12/22 01:34:53;;;;;;;41.40;21.48;;;;;;;-4.86;100.00;103222.25;10543467;28;20043;-60
2021/12/22 01:39:56;;;;;;;54.05;23.90;;;;;;;-4.91;100.00;103221.16;10542110;28;20058;-59
2021/12/22 01:45:14;;;;;;;60.88;26.77;;;;;;;-5.04;100.00;103212.06;10543189;28;20044;-59
2021/12/22 01:50:18;;;;;;;43.22;20.63;;;;;;;-4.83;100.00;103225.75;10541661;28;20051;-60
2021/12/22 01:55:33;;;;;;;44.33;23.80;;;;;;;-5.08;100.00;103207.63;10541973;28;20052;-59
2021/12/22 02:00:35;;;;;;;41.47;23.33;;;;;;;-5.14;100.00;103196.25;10542033;28;20048;-59
2021/12/22 02:05:37;;;;;;;49.47;23.38;;;;;;;-5.09;100.00;103193.09;10542724;28;20488;-60
2021/12/22 02:10:46;;;;;;;54.47;24.05;;;;;;;-5.17;100.00;103198.66;10541755;28;20055;-60
2021/12/22 02:15:49;;;;;;;41.53;21.00;;;;;;;-5.31;100.00;103190.34;10540698;28;20044;-60
2021/12/22 02:20:51;;;;;;;43.75;22.13;;;;;;;-5.37;100.00;103196.03;10540407;28;20052;-59
2021/12/22 02:25:59;;;;;;;49.20;23.38;;;;;;;-5.33;100.00;103186.84;10541486;28;20055;-61
2021/12/22 02:31:02;;;;;;;44.70;20.75;;;;;;;-5.05;100.00;103212.00;10541587;28;20126;-59
2021/12/22 02:41:12;;;;;;;54.30;23.70;;;;;;;-5.44;100.00;103182.13;10541327;28;20508;-59
2021/12/22 02:46:25;;;;;;;47.10;23.15;;;;;;;-5.16;100.00;103198.75;10541215;28;20055;-59
2021/12/22 02:51:28;;;;;;;44.72;21.83;;;;;;;-5.32;100.00;103186.91;10540448;28;20083;-59
2021/12/22 03:06:57;;;;;;;45.22;21.40;;;;;;;-5.64;100.00;103170.09;10540763;28;20072;-61
2021/12/22 03:12:03;;;;;;;48.28;23.15;;;;;;;-5.75;100.00;103173.81;10539486;28;20679;-59
2021/12/22 03:17:05;;;;;;;38.78;20.20;;;;;;;-5.35;100.00;103206.34;10540359;28;20067;-60
2021/12/22 03:22:10;;;;;;;47.38;21.50;;;;;;;-5.78;100.00;103192.41;10538507;28;20048;-59
2021/12/22 03:27:13;;;;;;;47.60;21.38;;;;;;;-5.78;100.00;103197.50;10539515;28;20381;-59
2021/12/22 03:32:15;;;;;;;42.50;22.13;;;;;;;-5.79;100.00;103201.72;10539364;28;20438;-60
2021/12/22 03:37:18;;;;;;;40.00;19.67;;;;;;;-5.67;100.00;103196.34;10538321;28;20119;-61
2021/12/22 03:42:20;;;;;;;38.35;19.67;;;;;;;-5.92;100.00;103198.50;10539433;28;20048;-58
2021/12/22 03:47:23;;;;;;;46.58;21.38;;;;;;;-5.76;100.00;103200.13;10539368;28;20067;-59
2021/12/22 03:52:25;;;;;;;40.50;19.85;;;;;;;-5.69;100.00;103189.41;10539612;28;20048;-61
2021/12/22 03:57:34;;;;;;;41.63;21.33;;;;;;;-6.06;100.00;103164.69;10539171;28;20055;-59
2021/12/22 04:02:37;;;;;;;42.95;22.02;;;;;;;-5.87;100.00;103171.53;10538697;28;20048;-60
2021/12/22 04:07:40;;;;;;;47.25;22.33;;;;;;;-5.83;100.00;103174.31;10538819;28;20488;-59
2021/12/22 04:12:42;;;;;;;39.22;18.52;;;;;;;-5.41;100.00;103191.59;10538277;28;20040;-62
2021/12/22 04:17:44;;;;;;;42.20;21.80;;;;;;;-5.86;100.00;103168.19;10538093;28;20048;-60
2021/12/22 04:22:47;;;;;;;37.22;19.35;;;;;;;-5.81;100.00;103172.72;10539782;28;20044;-59
2021/12/22 04:27:53;;;;;;;37.15;21.15;;;;;;;-5.73;100.00;103175.63;10546666;28;20040;-59
2021/12/22 04:32:55;;;;;;;40.00;19.80;;;;;;;-5.96;100.00;103169.44;10545884;28;20044;-59
2021/12/22 04:37:57;;;;;;;34.47;16.67;;;;;;;-6.33;100.00;103143.81;10545858;28;20051;-60
2021/12/22 04:43:00;;;;;;;43.88;21.15;;;;;;;-6.39;100.00;103142.72;10527664;28;20115;-59
2021/12/22 04:48:02;;;;;;;41.55;19.55;;;;;;;-5.91;100.00;103156.88;10545260;28;20059;-61
2021/12/22 04:58:09;;;;;;;33.80;18.20;;;;;;;-5.93;100.00;103145.72;10543814;28;20058;-62
2021/12/22 05:03:12;;;;;;;42.13;18.85;;;;;;;-6.01;100.00;103132.63;10545033;28;20044;-59
2021/12/22 05:08:16;;;;;;;37.25;19.73;;;;;;;-5.90;100.00;103139.13;10544651;28;20048;-60
2021/12/22 05:13:18;;;;;;;49.45;22.50;;;;;;;-5.81;100.00;103133.56;10544053;28;20044;-60
2021/12/22 05:18:23;;;;;;;40.08;18.80;;;;;;;-5.92;100.00;103120.28;10544340;28;20040;-59
2021/12/22 05:23:26;;;;;;;39.85;18.75;;;;;;;-5.93;100.00;103121.09;10543844;28;20130;-60
2021/12/22 05:28:28;;;;;;;35.92;17.95;;;;;;;-5.98;100.00;103126.00;10543056;28;20059;-60
2021/12/22 05:33:30;;;;;;;37.50;18.48;;;;;;;-5.70;100.00;103134.06;10542959;28;20052;-60
2021/12/22 05:38:33;;;;;;;37.25;16.60;;;;;;;-5.82;100.00;103122.47;10543562;28;20044;-59
2021/12/22 05:43:35;;;;;;;37.63;16.17;;;;;;;-5.52;100.00;103140.03;10543512;28;20050;-60
2021/12/22 05:48:37;;;;;;;37.28;16.83;;;;;;;-5.20;100.00;103142.31;10543297;28;20062;-60
2021/12/22 05:53:40;;;;;;;34.22;16.75;;;;;;;-5.02;100.00;103152.50;10542385;28;20051;-60
2021/12/22 05:58:42;;;;;;;36.65;15.25;;;;;;;-5.03;100.00;103143.94;10543027;28;20392;-60
2021/12/22 06:03:45;;;;;;;35.08;15.60;;;;;;;-5.15;100.00;103139.16;10542195;28;20056;-60
2021/12/22 06:08:47;;;;;;;34.35;15.68;;;;;;;-4.82;100.00;103161.03;10542029;28;20044;-60
2021/12/22 06:13:49;;;;;;;32.55;15.05;;;;;;;-5.24;100.00;103126.84;10542132;28;20052;-61
2021/12/22 06:18:57;;;;;;;29.67;14.63;;;;;;;-5.67;100.00;103109.56;10540996;28;20040;-61
2021/12/22 06:24:00;;;;;;;30.38;14.70;;;;;;;-5.53;100.00;103114.44;10541489;28;20054;-61
2021/12/22 06:29:02;;;;;;;28.77;15.63;;;;;;;-5.55;100.00;103111.81;10541606;28;20396;-60
2021/12/22 06:34:05;;;;;;;31.00;14.32;;;;;;;-5.82;100.00;103109.69;10541212;28;20075;-59
2021/12/22 06:39:08;;;;;;;27.90;15.57;;;;;;;-5.79;100.00;103116.66;10540842;28;20048;-59
2021/12/22 06:44:11;;;;;;;31.23;15.70;;;;;;;-5.83;100.00;103119.88;10540850;28;20122;-61
2021/12/22 06:49:13;;;;;;;38.00;14.85;;;;;;;-5.39;100.00;103146.59;10541110;28;20040;-59
2021/12/22 06:54:15;;;;;;;35.13;17.25;;;;;;;-5.58;100.00;103139.75;10540370;28;20040;-59
2021/12/22 06:59:18;;;;;;;45.95;17.52;;;;;;;-5.63;100.00;103138.63;10540642;28;20059;-60
2021/12/22 07:04:20;;;;;;;41.88;17.77;;;;;;;-5.17;100.00;103155.25;10540359;28;20044;-59
2021/12/22 07:09:25;;;;;;;33.67;16.58;;;;;;;-5.45;100.00;103138.63;10540000;28;20106;-60
2021/12/22 07:14:28;;;;;;;34.03;15.32;;;;;;;-5.41;100.00;103151.63;10540369;28;20052;-59
2021/12/22 07:19:30;;;;;;;37.47;18.05;;;;;;;-5.16;100.00;103159.53;10540197;28;20054;-59
2021/12/22 07:24:33;;;;;;;27.08;14.75;;;;;;;-5.10;100.00;103150.47;10539716;28;20050;-59
2021/12/22 07:29:37;;;;;;;36.25;14.55;;;;;;;-4.95;100.00;103160.50;10540054;28;20050;-59
2021/12/22 07:34:49;;;;;;;31.83;15.32;;;;;;;-4.93;100.00;103158.00;10539776;28;20044;-61
2021/12/22 07:39:52;;;;;;;31.45;15.10;;;;;;;-4.95;100.00;103155.38;10538586;28;20048;-60
2021/12/22 07:44:54;;;;;;;29.92;14.77;;;;;;;-4.80;100.00;103151.78;10539354;28;20044;-60
2021/12/22 07:49:56;;;;;;;33.83;17.33;;;;;;;-4.60;100.00;103148.38;10538941;28;20511;-60
2021/12/22 07:54:59;;;;;;;34.38;14.50;;;;;;;-4.61;100.00;103140.66;10539515;28;20055;-59
2021/12/22 08:00:02;;;;;;;38.30;14.18;;;;;;;-4.46;100.00;103159.19;10544692;28;20062;-61
2021/12/22 08:05:05;;;;;;;35.10;15.43;;;;;;;-4.54;100.00;103143.56;10547244;28;20055;-59
2021/12/22 08:10:08;;;;;;;37.35;16.55;;;;;;;-4.33;100.00;103142.69;10545707;28;20056;-60
2021/12/22 08:15:11;;;;;;;36.85;16.95;;;;;;;-4.38;100.00;103139.94;10546728;28;20446;-59
2021/12/22 08:20:13;;;;;;;36.90;15.93;;;;;;;-4.37;100.00;103135.69;10546616;28;20054;-60
2021/12/22 08:25:16;;;;;;;30.65;13.98;;;;;;;-4.09;100.00;103149.66;10545215;28;20044;-59
2021/12/22 08:30:18;;;;;;;36.72;14.82;;;;;;;-4.07;100.00;103153.13;10545916;28;20407;-60
2021/12/22 08:35:24;;;;;;;32.63;15.23;;;;;;;-4.02;100.00;103152.50;10546221;28;20048;-59
2021/12/22 08:40:27;;;;;;;32.58;16.23;;;;;;;-4.07;100.00;103137.78;10546086;28;20054;-60
2021/12/22 08:45:29;;;;;;;38.72;16.35;;;;;;;-3.88;100.00;103147.97;10545533;28;20044;-60
2021/12/22 08:50:32;;;;;;;33.78;16.48;;;;;;;-3.90;100.00;103134.22;10545285;28;20044;-61
2021/12/22 08:55:34;;;;;;;28.75;13.95;;;;;;;-3.54;100.00;103156.97;10545173;28;20051;-62
2021/12/22 09:00:38;;;;;;;33.72;15.73;;;;;;;-3.51;100.00;103159.66;10544142;28;20070;-60
2021/12/22 09:05:40;;;;;;;25.58;14.93;;;;;;;-3.30;100.00;103161.28;10544723;28;20051;-60
2021/12/22 09:10:43;;;;;;;34.53;16.38;;;;;;;-3.20;100.00;103177.03;10544385;28;20055;-61
2021/12/22 09:15:45;;;;;;;25.67;15.07;;;;;;;-2.97;100.00;103179.63;10544832;28;20044;-59
2021/12/22 09:20:48;;;;;;;27.27;15.05;;;;;;;-2.64;100.00;103192.78;10544262;28;20052;-60
2021/12/22 09:25:50;;;;;;;30.10;17.10;;;;;;;-2.70;100.00;103190.00;10543757;28;20044;-59
2021/12/22 09:30:53;;;;;;;30.13;14.57;;;;;;;-2.21;100.00;103201.09;10543704;28;20055;-60
2021/12/22 09:35:55;;;;;;;28.30;15.00;;;;;;;-1.06;100.00;103221.00;10543425;28;20048;-60
2021/12/22 09:40:58;;;;;;;23.85;14.52;;;;;;;-1.24;100.00;103217.06;10543587;28;20048;-59
2021/12/22 09:46:06;;;;;;;27.33;15.23;;;;;;;-1.64;100.00;103186.69;10543144;28;20054;-61
2021/12/22 09:56:17;;;;;;;33.47;16.42;;;;;;;-1.55;100.00;103187.84;10542807;28;20056;-61
2021/12/22 10:01:23;;;;;;;25.25;13.43;;;;;;;-1.89;100.00;103162.78;10541146;28;20500;-60
2021/12/22 10:06:26;;;;;;;26.52;14.05;;;;;;;-1.69;100.00;103169.44;10541268;28;20039;-61
2021/12/22 10:11:31;;;;;;;24.25;15.50;;;;;;;-1.93;100.00;103156.69;10541202;28;20051;-58
2021/12/22 10:16:45;;;;;;;22.52;13.57;;;;;;;-1.73;100.00;103165.03;10541964;28;20117;-60
2021/12/22 10:21:57;;;;;;;19.55;13.38;;;;;;;-1.92;100.00;103145.56;10540341;28;20404;-60
2021/12/22 10:27:04;;;;;;;29.33;15.80;;;;;;;-1.80;100.00;103144.22;10541826;28;20050;-60
2021/12/22 10:32:12;;;;;;;29.52;14.50;;;;;;;-1.74;100.00;103135.03;10540082;28;20122;-59
2021/12/22 10:37:31;;;;;;;26.52;13.60;;;;;;;-1.45;100.00;103159.88;10541504;28;20052;-61
2021/12/22 10:42:41;;;;;;;27.98;13.50;;;;;;;-1.00;100.00;103164.63;10541655;28;20048;-60
2021/12/22 10:53:15;;;;;;;26.80;14.77;;;;;;;-1.04;100.00;103144.78;10540521;28;20052;-61
2021/12/22 10:58:32;;;;;;;28.20;16.15;;;;;;;-0.51;100.00;103163.41;10540608;28;20056;-61
2021/12/22 11:03:39;;;;;;;29.02;13.95;;;;;;;-0.62;100.00;103144.25;10539588;28;20056;-61
2021/12/22 11:08:56;;;;;;;24.67;15.00;;;;;;;-0.44;100.00;103143.84;10540318;28;20124;-60
2021/12/22 11:14:13;;;;;;;30.13;15.05;;;;;;;-0.32;100.00;103149.31;10540221;28;20044;-60
2021/12/22 11:19:15;;;;;;;25.65;15.55;;;;;;;-0.28;100.00;103135.69;10540198;28;20059;-60
2021/12/22 11:24:18;;;;;;;23.83;14.77;;;;;;;-0.56;100.00;103111.81;10539349;28;20047;-61
2021/12/22 11:29:21;;;;;;;21.27;12.90;;;;;;;-0.78;100.00;103094.94;10539682;28;20051;-60
2021/12/22 11:34:23;;;;;;;39.63;15.38;;;;;;;-0.45;100.00;103106.94;10543599;28;20128;-59
2021/12/22 11:39:26;;;;;;;24.77;15.13;;;;;;;-0.28;100.00;103106.50;10547476;28;20044;-60
2021/12/22 11:44:30;;;;;;;24.83;14.35;;;;;;;-0.28;100.00;103109.06;10546704;28;20044;-60
2021/12/22 11:49:37;;;;;;;24.00;14.15;;;;;;;0.47;100.00;103123.72;10548151;28;20043;-61
2021/12/22 11:55:19;;;;;;;21.75;13.52;;;;;;;0.35;100.00;103110.53;10547968;28;20052;-59
2021/12/22 12:00:23;;;;;;;26.43;13.63;;;;;;;0.25;100.00;103100.88;10547941;28;20504;-59
2021/12/22 12:05:30;;;;;;;23.73;13.45;;;;;;;0.12;100.00;103102.31;10547239;28;20059;-58
2021/12/22 12:10:41;;;;;;;22.73;14.10;;;;;;;0.17;100.00;103086.13;10546536;28;20044;-59
2021/12/22 12:21:47;;;;;;;20.88;13.43;;;;;;;0.48;100.00;103096.22;10546646;28;20075;-60
2021/12/22 12:26:50;;;;;;;24.23;13.90;;;;;;;0.27;100.00;103074.31;10546985;28;20044;-60
2021/12/22 12:31:52;;;;;;;22.40;13.65;;;;;;;-0.26;100.00;103040.47;10545016;28;20048;-60
2021/12/22 12:36:54;;;;;;;17.70;12.63;;;;;;;-0.34;100.00;103032.56;10544854;28;20047;-59
2021/12/22 12:42:01;;;;;;;23.80;13.27;;;;;;;-0.36;100.00;103023.94;10544908;28;20071;-60
2021/12/22 12:47:18;;;;;;;23.88;12.13;;;;;;;-0.36;100.00;103018.78;10545074;28;20377;-60
2021/12/22 12:52:23;;;;;;;24.88;14.15;;;;;;;-0.24;100.00;103019.06;10545866;28;20048;-60
2021/12/22 12:57:26;;;;;;;19.13;12.68;;;;;;;-0.42;100.00;103005.75;10543900;28;20056;-60
2021/12/22 13:02:31;;;;;;;20.63;12.60;;;;;;;-0.38;100.00;103002.44;10543848;28;20048;-60
2021/12/22 13:07:34;;;;;;;22.23;12.73;;;;;;;-0.38;100.00;102993.00;10544945;28;20043;-60
2021/12/22 13:17:49;;;;;;;22.55;13.18;;;;;;;-0.02;100.00;103001.53;10544679;28;20398;-62
2021/12/22 13:22:53;;;;;;;22.23;13.13;;;;;;;0.04;100.00;102988.78;10543443;28;20051;-61
2021/12/22 13:28:08;;;;;;;21.67;14.27;;;;;;;-0.20;100.00;102971.97;10544631;28;20073;-60
2021/12/22 13:33:22;;;;;;;21.83;13.15;;;;;;;-0.22;100.00;102968.50;10543472;28;20059;-62
2021/12/22 13:38:24;;;;;;;22.05;13.45;;;;;;;-0.44;100.00;102956.84;10542857;28;20040;-59
2021/12/22 13:43:35;;;;;;;26.00;14.23;;;;;;;-0.47;100.00;102954.19;10543226;28;20051;-60
2021/12/22 13:48:44;;;;;;;21.98;13.57;;;;;;;-0.46;100.00;102944.75;10543406;28;20052;-62
2021/12/22 13:53:47;;;;;;;20.92;13.30;;;;;;;-0.46;100.00;102944.75;10542855;28;20040;-60
2021/12/22 13:58:55;;;;;;;18.13;13.15;;;;;;;-0.38;100.00;102945.81;10542106;28;20068;-61
2021/12/22 14:04:00;;;;;;;20.02;13.60;;;;;;;-0.64;100.00;102927.19;10541348;28;20066;-61
2021/12/22 14:09:10;;;;;;;22.77;12.88;;;;;;;-0.51;100.00;102929.22;10542191;28;20052;-60
2021/12/22 14:14:43;;;;;;;21.13;13.30;;;;;;;-0.57;100.00;102919.66;10541830;28;20052;-62
2021/12/22 14:19:51;;;;;;;19.02;13.75;;;;;;;-0.43;100.00;102917.38;10541758;28;20080;-59
2021/12/22 14:24:59;;;;;;;21.60;14.25;;;;;;;-0.53;100.00;102901.72;10541527;28;20055;-60
2021/12/22 14:30:09;;;;;;;24.67;13.57;;;;;;;-0.75;100.00;102881.50;10540319;28;20049;-61
2021/12/22 14:35:14;;;;;;;19.50;12.68;;;;;;;-0.80;100.00;102877.09;10539886;28;20400;-60
2021/12/22 14:40:20;;;;;;;23.77;14.02;;;;;;;-0.83;100.00;102872.72;10539871;28;20411;-60
2021/12/22 14:45:44;;;;;;;20.08;13.90;;;;;;;-0.88;100.00;102870.91;10540982;28;20048;-60
2021/12/22 14:51:00;;;;;;;24.30;15.55;;;;;;;-0.91;100.00;102853.69;10540994;28;20052;-60
2021/12/22 14:56:05;;;;;;;21.08;15.15;;;;;;;-1.04;100.00;102844.84;10540549;28;20044;-60
2021/12/22 15:01:09;;;;;;;24.95;14.85;;;;;;;-1.29;100.00;102825.38;10540546;28;20048;-60
2021/12/22 15:06:15;;;;;;;21.35;14.40;;;;;;;-1.23;100.00;102833.22;10540327;28;20051;-63
2021/12/22 15:11:19;;;;;;;25.77;14.60;;;;;;;-1.26;100.00;102819.44;10539692;28;20051;-61
2021/12/22 15:16:23;;;;;;;29.35;15.40;;;;;;;-1.47;100.00;102812.94;10540370;28;20044;-60
2021/12/22 15:21:25;;;;;;;23.40;15.13;;;;;;;-1.65;100.00;102805.63;10538666;28;20454;-60
2021/12/22 15:26:28;;;;;;;25.98;16.27;;;;;;;-1.78;100.00;102793.28;10540325;28;20043;-60
2021/12/22 15:31:32;;;;;;;22.85;15.00;;;;;;;-1.80;100.00;102797.53;10539713;28;20522;-59
2021/12/22 15:36:34;;;;;;;27.35;15.55;;;;;;;-1.91;100.00;102781.88;10540088;28;20044;-62
2021/12/22 15:41:37;;;;;;;24.73;15.18;;;;;;;-1.76;100.00;102784.81;10539596;28;20060;-61
2021/12/22 15:46:39;;;;;;;23.80;15.20;;;;;;;-1.87;100.00;102782.00;10539496;28;20048;-59
2021/12/22 15:51:42;;;;;;;24.52;16.35;;;;;;;-1.84;100.00;102786.31;10538045;28;20048;-61
2021/12/22 15:56:44;;;;;;;21.95;14.25;;;;;;;-1.97;100.00;102774.84;10539202;28;20127;-59
2021/12/22 16:01:46;;;;;;;25.38;14.20;;;;;;;-1.90;100.00;102779.34;10539447;28;20508;-60
2021/12/22 16:06:49;;;;;;;29.17;14.98;;;;;;;-1.93;100.00;102775.81;10539096;28;20048;-60
2021/12/22 16:11:51;;;;;;;25.95;15.55;;;;;;;-2.02;100.00;102770.44;10537339;28;20447;-61
2021/12/22 16:16:54;;;;;;;27.40;16.05;;;;;;;-1.90;100.00;102775.88;10539236;28;20051;-62
2021/12/22 16:21:58;;;;;;;24.63;15.95;;;;;;;-1.99;100.00;102755.97;10544836;28;20526;-61
2021/12/22 16:27:01;;;;;;;28.75;15.57;;;;;;;-1.98;100.00;102760.28;10546811;28;20051;-61
2021/12/22 16:32:04;;;;;;;29.52;17.13;;;;;;;-1.98;100.00;102757.72;10545963;28;20044;-61
2021/12/22 16:37:06;;;;;;;27.25;15.77;;;;;;;-1.87;100.00;102760.56;10545483;28;20048;-61
2021/12/22 16:42:09;;;;;;;29.92;16.77;;;;;;;-2.10;100.00;102735.16;10544458;28;20052;-61
2021/12/22 16:47:11;;;;;;;23.40;15.65;;;;;;;-2.16;100.00;102729.88;10545942;28;20048;-61
2021/12/22 16:52:13;;;;;;;29.08;15.77;;;;;;;-2.52;100.00;102712.66;10545613;28;20051;-61
2021/12/22 16:57:16;;;;;;;28.05;15.88;;;;;;;-2.50;100.00;102712.72;10527671;28;20079;-62
2021/12/22 17:02:19;;;;;;;26.83;15.68;;;;;;;-2.43;100.00;102712.03;10544968;28;20071;-62
2021/12/22 17:07:21;;;;;;;24.05;15.80;;;;;;;-2.37;100.00;102709.66;10543679;28;20044;-60
2021/12/22 17:12:24;;;;;;;24.90;16.02;;;;;;;-2.23;100.00;102710.00;10544616;28;20048;-61
2021/12/22 17:17:28;;;;;;;39.08;16.42;;;;;;;-2.29;100.00;102707.28;10543387;28;20059;-63
2021/12/22 17:22:33;;;;;;;28.73;16.25;;;;;;;-2.15;100.00;102710.19;10544804;28;20055;-60
2021/12/22 17:27:37;;;;;;;25.65;15.65;;;;;;;-2.20;100.00;102699.84;10543932;28;20052;-61
2021/12/22 17:32:40;;;;;;;35.70;15.88;;;;;;;-2.33;100.00;102687.50;10543579;28;20048;-62
2021/12/22 17:37:43;;;;;;;27.08;17.50;;;;;;;-2.37;100.00;102683.09;10543570;28;20040;-62
2021/12/22 17:42:47;;;;;;;22.40;15.65;;;;;;;-2.35;100.00;102679.78;10543416;28;20052;-61
2021/12/22 17:47:50;;;;;;;28.00;15.00;;;;;;;-2.22;100.00;102682.66;10543506;28;20044;-60
2021/12/22 17:52:53;;;;;;;29.20;16.10;;;;;;;-2.20;100.00;102681.88;10541967;28;20515;-61
2021/12/22 17:57:55;;;;;;;25.23;16.60;;;;;;;-1.92;100.00;102691.09;10541851;28;20052;-61
2021/12/22 18:02:58;;;;;;;25.40;15.23;;;;;;;-1.84;100.00;102690.44;10542393;28;20048;-61
2021/12/22 18:08:00;;;;;;;28.77;14.95;;;;;;;-2.01;100.00;102678.06;10542476;28;20047;-62
2021/12/22 18:13:03;;;;;;;27.17;16.20;;;;;;;-2.08;100.00;102673.63;10541982;28;20397;-60
2021/12/22 18:18:07;;;;;;;30.17;17.67;;;;;;;-2.14;100.00;102664.03;10542578;28;20044;-63
2021/12/22 18:23:10;;;;;;;29.77;16.45;;;;;;;-2.06;100.00;102659.09;10541831;28;20052;-61
2021/12/22 18:28:12;;;;;;;31.85;18.55;;;;;;;-2.04;100.00;102646.31;10542221;28;20056;-61
2021/12/22 18:33:15;;;;;;;29.25;16.35;;;;;;;-2.11;100.00;102625.63;10539804;28;20126;-62
2021/12/22 18:38:22;;;;;;;26.02;16.75;;;;;;;-2.18;100.00;102636.56;10540273;28;20051;-62
2021/12/22 18:43:25;;;;;;;29.30;15.60;;;;;;;-2.11;100.00;102615.34;10540511;28;20480;-60
2021/12/22 18:48:29;;;;;;;27.95;16.90;;;;;;;-2.24;100.00;102615.88;10540103;28;20510;-61
2021/12/22 18:53:31;;;;;;;29.80;17.48;;;;;;;-2.18;100.00;102623.75;10539433;28;20051;-60
2021/12/22 18:58:34;;;;;;;28.52;16.10;;;;;;;-2.23;100.00;102611.63;10539298;28;20056;-63
2021/12/22 19:03:36;;;;;;;28.38;16.67;;;;;;;-2.19;100.00;102604.03;10540308;28;20056;-60
2021/12/22 19:08:38;;;;;;;31.10;18.30;;;;;;;-2.46;100.00;102586.25;10540224;28;20044;-61
2021/12/22 19:13:41;;;;;;;30.02;17.30;;;;;;;-2.52;100.00;102581.84;10540297;28;20051;-62
2021/12/22 19:18:44;;;;;;;27.65;16.00;;;;;;;-2.25;100.00;102583.38;10540017;28;20055;-62
2021/12/22 19:23:47;;;;;;;30.73;17.52;;;;;;;-2.24;100.00;102572.25;10539501;28;20492;-60
2021/12/22 19:28:50;;;;;;;28.13;17.50;;;;;;;-2.39;100.00;102557.34;10539891;28;20044;-61
2021/12/22 19:33:52;;;;;;;31.77;16.70;;;;;;;-2.47;100.00;102553.72;10539138;28;20072;-63
2021/12/22 19:38:54;;;;;;;26.02;15.57;;;;;;;-2.51;100.00;102547.66;10539509;28;20051;-62
2021/12/22 19:43:57;;;;;;;30.17;18.27;;;;;;;-2.41;100.00;102548.75;10539185;28;20056;-61
2021/12/22 19:49:00;;;;;;;30.05;16.65;;;;;;;-2.25;100.00;102552.59;10540001;28;20067;-61
2021/12/22 19:54:02;;;;;;;28.92;16.00;;;;;;;-2.23;100.00;102543.22;10541050;28;20051;-60
2021/12/22 19:59:05;;;;;;;28.70;16.15;;;;;;;-2.08;100.00;102553.84;10547751;28;20052;-61
2021/12/22 20:04:08;;;;;;;27.73;17.13;;;;;;;-2.00;100.00;102538.63;10547898;28;20105;-62
2021/12/22 20:09:10;;;;;;;28.20;17.02;;;;;;;-1.90;100.00;102538.00;10546395;28;20044;-61
2021/12/22 20:14:14;;;;;;;27.08;16.73;;;;;;;-1.95;100.00;102523.28;10546978;28;20055;-61
2021/12/22 20:19:16;;;;;;;30.25;17.88;;;;;;;-1.97;100.00;102527.53;10546954;28;20047;-62
2021/12/22 20:24:18;;;;;;;32.92;16.67;;;;;;;-1.81;100.00;102523.63;10546670;28;20048;-60
2021/12/22 20:29:22;;;;;;;27.45;16.25;;;;;;;-1.74;100.00;102528.91;10545890;28;20058;-62
2021/12/22 20:34:24;;;;;;;30.52;17.38;;;;;;;-1.82;100.00;102514.16;10544890;28;20048;-60
2021/12/22 20:39:27;;;;;;;27.70;18.38;;;;;;;-1.91;100.00;102515.69;10545976;28;20498;-61
2021/12/22 20:44:30;;;;;;;30.40;16.92;;;;;;;-1.99;100.00;102508.66;10546011;28;20075;-61
2021/12/22 20:49:35;;;;;;;25.77;16.35;;;;;;;-2.00;100.00;102501.78;10545496;28;20044;-61
2021/12/22 20:54:37;;;;;;;29.85;18.52;;;;;;;-2.16;100.00;102492.91;10545152;28;20052;-61
2021/12/22 20:59:39;;;;;;;26.08;16.15;;;;;;;-1.98;100.00;102495.88;10546058;28;20058;-60
2021/12/22 21:04:42;;;;;;;29.17;16.98;;;;;;;-2.11;100.00;102479.31;10544470;28;20044;-61
2021/12/22 21:09:44;;;;;;;27.77;17.30;;;;;;;-1.99;100.00;102483.00;10544620;28;20051;-63
2021/12/22 21:14:47;;;;;;;28.65;17.95;;;;;;;-2.08;100.00;102474.25;10544221;28;20444;-61
2021/12/22 21:19:49;;;;;;;31.42;17.83;;;;;;;-1.97;100.00;102464.22;10543228;28;20055;-63
2021/12/22 21:24:53;;;;;;;28.98;17.48;;;;;;;-1.89;100.00;102470.38;10543923;28;20499;-61
2021/12/22 21:29:55;;;;;;;26.90;16.75;;;;;;;-1.84;100.00;102452.50;10544020;28;20047;-61
2021/12/22 21:34:58;;;;;;;31.30;17.13;;;;;;;-1.85;100.00;102440.50;10543536;28;20492;-60
2021/12/22 21:40:00;;;;;;;28.05;15.95;;;;;;;-1.79;100.00;102434.63;10543491;28;20040;-60
2021/12/22 21:45:03;;;;;;;29.25;16.13;;;;;;;-1.81;100.00;102431.19;10543161;28;20052;-60
2021/12/22 21:50:07;;;;;;;31.70;16.88;;;;;;;-1.84;100.00;102424.28;10525566;28;20055;-60
2021/12/22 21:55:10;;;;;;;28.40;16.23;;;;;;;-1.78;100.00;102419.25;10541868;28;20040;-61
2021/12/22 22:00:14;;;;;;;27.55;16.60;;;;;;;-1.84;100.00;102421.69;10542851;28;20507;-60
2021/12/22 22:05:18;;;;;;;28.55;17.05;;;;;;;-1.80;100.00;102435.47;10541276;28;20420;-60
2021/12/22 22:10:22;;;;;;;27.58;17.80;;;;;;;-1.84;100.00;102382.34;10541072;28;20380;-59
2021/12/22 22:15:24;;;;;;;28.42;17.33;;;;;;;-1.74;100.00;102402.22;10541793;28;20047;-60
2021/12/22 22:20:27;;;;;;;27.30;16.77;;;;;;;-1.77;100.00;102394.44;10542220;28;20054;-61
2021/12/22 22:25:29;;;;;;;28.60;16.42;;;;;;;-1.71;100.00;102410.84;10541628;28;20058;-62
2021/12/22 22:30:32;;;;;;;25.45;17.08;;;;;;;-1.69;100.00;102416.84;10541541;28;20052;-62
2021/12/22 22:35:34;;;;;;;32.88;17.67;;;;;;;-1.62;100.00;102402.44;10541361;28;20050;-61
2021/12/22 22:40:37;;;;;;;30.40;16.42;;;;;;;-1.71;100.00;102400.56;10541381;28;20044;-61
2021/12/22 22:45:39;;;;;;;27.88;18.05;;;;;;;-1.65;100.00;102383.53;10541043;28;20400;-62
2021/12/22 22:50:42;;;;;;;28.90;16.92;;;;;;;-1.69;100.00;102355.22;10540933;28;20093;-60
2021/12/22 22:55:44;;;;;;;33.03;18.35;;;;;;;-1.72;100.00;102360.28;10540363;28;20510;-61
2021/12/22 23:00:47;;;;;;;27.98;17.38;;;;;;;-1.69;100.00;102359.50;10539473;28;20063;-60
2021/12/22 23:05:50;;;;;;;28.88;17.77;;;;;;;-1.77;100.00;102343.09;10540081;28;20126;-60
2021/12/22 23:10:52;;;;;;;24.90;16.50;;;;;;;-1.71;100.00;102346.63;10540682;28;20051;-61
2021/12/22 23:15:56;;;;;;;28.15;16.50;;;;;;;-1.65;100.00;102355.28;10539853;28;20056;-61
2021/12/22 23:20:59;;;;;;;31.02;17.23;;;;;;;-1.70;100.00;102345.81;10539784;28;20542;-63